sensor_id;sensor_type;location;lat;lon;timestamp;P1;durP1;ratioP1;P2;durP2;ratioP2
53299;SDS011;39187;48.476;8.310;2023-05-07T00:01:42;2.90;;;2.70;;
53299;SDS011;39187;48.476;8.310;2023-05-07T00:04:07;3.43;;;3.23;;
53299;SDS011;39187;48.476;8.310;2023-05-07T00:06:33;2.37;;;2.27;;
53299;SDS011;39187;48.476;8.310;2023-05-07T00:08:58;2.87;;;2.57;;
53299;SDS011;39187;48.476;8.310;2023-05-07T00:11:26;3.20;;;3.03;;
53299;SDS011;39187;48.476;8.310;2023-05-07T00:13:52;3.00;;;2.90;;
53299;SDS011;39187;48.476;8.310;2023-05-07T00:16:17;3.30;;;2.80;;
53299;SDS011;39187;48.476;8.310;2023-05-07T00:18:43;3.30;;;3.20;;
53299;SDS011;39187;48.476;8.310;2023-05-07T00:21:10;2.80;;;2.60;;
53299;SDS011;39187;48.476;8.310;2023-05-07T00:23:36;3.63;;;3.33;;
53299;SDS011;39187;48.476;8.310;2023-05-07T00:26:01;2.80;;;2.67;;
53299;SDS011;39187;48.476;8.310;2023-05-07T00:28:27;4.30;;;3.30;;
53299;SDS011;39187;48.476;8.310;2023-05-07T00:30:52;3.20;;;3.00;;
53299;SDS011;39187;48.476;8.310;2023-05-07T00:33:18;3.53;;;3.10;;
53299;SDS011;39187;48.476;8.310;2023-05-07T00:35:45;2.97;;;2.73;;
53299;SDS011;39187;48.476;8.310;2023-05-07T00:38:10;3.23;;;2.90;;
53299;SDS011;39187;48.476;8.310;2023-05-07T00:40:36;3.03;;;2.83;;
53299;SDS011;39187;48.476;8.310;2023-05-07T00:43:01;2.93;;;2.83;;
53299;SDS011;39187;48.476;8.310;2023-05-07T00:45:27;3.60;;;3.30;;
53299;SDS011;39187;48.476;8.310;2023-05-07T00:47:57;3.10;;;2.93;;
53299;SDS011;39187;48.476;8.310;2023-05-07T00:50:25;3.37;;;3.17;;
53299;SDS011;39187;48.476;8.310;2023-05-07T00:52:51;4.10;;;3.47;;
53299;SDS011;39187;48.476;8.310;2023-05-07T00:55:17;3.73;;;3.53;;
53299;SDS011;39187;48.476;8.310;2023-05-07T00:57:43;3.23;;;3.13;;
53299;SDS011;39187;48.476;8.310;2023-05-07T01:00:09;6.03;;;3.60;;
53299;SDS011;39187;48.476;8.310;2023-05-07T01:02:37;3.90;;;3.70;;
53299;SDS011;39187;48.476;8.310;2023-05-07T01:05:04;3.70;;;3.50;;
53299;SDS011;39187;48.476;8.310;2023-05-07T01:07:33;3.60;;;3.40;;
53299;SDS011;39187;48.476;8.310;2023-05-07T01:10:00;4.10;;;3.23;;
53299;SDS011;39187;48.476;8.310;2023-05-07T01:12:28;4.40;;;4.20;;
53299;SDS011;39187;48.476;8.310;2023-05-07T01:14:54;3.57;;;3.47;;
53299;SDS011;39187;48.476;8.310;2023-05-07T01:17:20;9.03;;;3.93;;
53299;SDS011;39187;48.476;8.310;2023-05-07T01:19:46;3.93;;;3.63;;
53299;SDS011;39187;48.476;8.310;2023-05-07T01:22:13;3.57;;;3.47;;
53299;SDS011;39187;48.476;8.310;2023-05-07T01:24:41;3.63;;;3.53;;
53299;SDS011;39187;48.476;8.310;2023-05-07T01:27:07;3.90;;;3.63;;
53299;SDS011;39187;48.476;8.310;2023-05-07T01:29:32;4.07;;;3.77;;
53299;SDS011;39187;48.476;8.310;2023-05-07T01:31:58;3.50;;;3.20;;
53299;SDS011;39187;48.476;8.310;2023-05-07T01:34:25;3.97;;;3.77;;
53299;SDS011;39187;48.476;8.310;2023-05-07T01:36:54;5.37;;;3.87;;
53299;SDS011;39187;48.476;8.310;2023-05-07T01:39:30;4.50;;;4.30;;
53299;SDS011;39187;48.476;8.310;2023-05-07T01:41:57;3.87;;;3.57;;
53299;SDS011;39187;48.476;8.310;2023-05-07T01:44:24;5.07;;;4.37;;
53299;SDS011;39187;48.476;8.310;2023-05-07T01:46:51;4.10;;;4.00;;
53299;SDS011;39187;48.476;8.310;2023-05-07T01:49:17;4.23;;;4.00;;
53299;SDS011;39187;48.476;8.310;2023-05-07T01:51:43;5.27;;;4.33;;
53299;SDS011;39187;48.476;8.310;2023-05-07T01:54:09;4.40;;;4.10;;
53299;SDS011;39187;48.476;8.310;2023-05-07T01:56:35;3.60;;;3.50;;
53299;SDS011;39187;48.476;8.310;2023-05-07T01:59:00;11.43;;;4.20;;
53299;SDS011;39187;48.476;8.310;2023-05-07T02:01:27;4.70;;;3.63;;
53299;SDS011;39187;48.476;8.310;2023-05-07T02:03:52;4.57;;;4.27;;
53299;SDS011;39187;48.476;8.310;2023-05-07T02:06:19;5.07;;;4.73;;
53299;SDS011;39187;48.476;8.310;2023-05-07T02:08:44;4.83;;;4.33;;
53299;SDS011;39187;48.476;8.310;2023-05-07T02:11:11;4.70;;;4.40;;
53299;SDS011;39187;48.476;8.310;2023-05-07T02:13:36;4.60;;;4.30;;
53299;SDS011;39187;48.476;8.310;2023-05-07T02:16:02;4.30;;;4.10;;
53299;SDS011;39187;48.476;8.310;2023-05-07T02:18:28;4.60;;;4.20;;
53299;SDS011;39187;48.476;8.310;2023-05-07T02:20:54;4.60;;;4.40;;
53299;SDS011;39187;48.476;8.310;2023-05-07T02:23:19;4.40;;;4.20;;
53299;SDS011;39187;48.476;8.310;2023-05-07T02:25:45;4.47;;;4.27;;
53299;SDS011;39187;48.476;8.310;2023-05-07T02:28:11;4.03;;;3.73;;
53299;SDS011;39187;48.476;8.310;2023-05-07T02:30:37;4.50;;;4.03;;
53299;SDS011;39187;48.476;8.310;2023-05-07T02:33:03;3.90;;;3.70;;
53299;SDS011;39187;48.476;8.310;2023-05-07T02:35:28;4.83;;;4.20;;
53299;SDS011;39187;48.476;8.310;2023-05-07T02:37:54;6.40;;;3.70;;
53299;SDS011;39187;48.476;8.310;2023-05-07T02:40:19;3.83;;;3.63;;
53299;SDS011;39187;48.476;8.310;2023-05-07T02:42:45;3.60;;;3.50;;
53299;SDS011;39187;48.476;8.310;2023-05-07T02:45:10;4.33;;;4.13;;
53299;SDS011;39187;48.476;8.310;2023-05-07T02:47:36;4.53;;;4.23;;
53299;SDS011;39187;48.476;8.310;2023-05-07T02:50:02;3.53;;;3.33;;
53299;SDS011;39187;48.476;8.310;2023-05-07T02:52:28;4.40;;;4.03;;
53299;SDS011;39187;48.476;8.310;2023-05-07T02:54:54;4.70;;;4.37;;
53299;SDS011;39187;48.476;8.310;2023-05-07T02:57:20;4.87;;;4.60;;
53299;SDS011;39187;48.476;8.310;2023-05-07T02:59:45;3.63;;;3.53;;
53299;SDS011;39187;48.476;8.310;2023-05-07T03:02:10;3.63;;;3.53;;
53299;SDS011;39187;48.476;8.310;2023-05-07T03:04:36;4.20;;;4.00;;
53299;SDS011;39187;48.476;8.310;2023-05-07T03:07:02;5.40;;;4.30;;
53299;SDS011;39187;48.476;8.310;2023-05-07T03:09:27;4.90;;;4.70;;
53299;SDS011;39187;48.476;8.310;2023-05-07T03:11:53;4.70;;;4.50;;
53299;SDS011;39187;48.476;8.310;2023-05-07T03:14:18;3.93;;;3.63;;
53299;SDS011;39187;48.476;8.310;2023-05-07T03:16:43;4.53;;;4.23;;
53299;SDS011;39187;48.476;8.310;2023-05-07T03:19:09;4.30;;;3.90;;
53299;SDS011;39187;48.476;8.310;2023-05-07T03:21:34;5.03;;;4.73;;
53299;SDS011;39187;48.476;8.310;2023-05-07T03:24:00;4.37;;;3.90;;
53299;SDS011;39187;48.476;8.310;2023-05-07T03:26:25;5.30;;;4.80;;
53299;SDS011;39187;48.476;8.310;2023-05-07T03:28:51;4.40;;;4.10;;
53299;SDS011;39187;48.476;8.310;2023-05-07T03:31:17;3.97;;;3.87;;
53299;SDS011;39187;48.476;8.310;2023-05-07T03:33:53;5.30;;;5.10;;
53299;SDS011;39187;48.476;8.310;2023-05-07T03:36:20;4.90;;;4.67;;
53299;SDS011;39187;48.476;8.310;2023-05-07T03:38:45;4.83;;;4.60;;
53299;SDS011;39187;48.476;8.310;2023-05-07T03:41:12;4.40;;;4.10;;
53299;SDS011;39187;48.476;8.310;2023-05-07T03:43:37;4.80;;;4.60;;
53299;SDS011;39187;48.476;8.310;2023-05-07T03:46:03;4.67;;;4.47;;
53299;SDS011;39187;48.476;8.310;2023-05-07T03:48:28;4.73;;;4.53;;
53299;SDS011;39187;48.476;8.310;2023-05-07T03:50:55;5.80;;;5.47;;
53299;SDS011;39187;48.476;8.310;2023-05-07T03:53:22;5.33;;;5.03;;
53299;SDS011;39187;48.476;8.310;2023-05-07T03:55:47;4.93;;;4.63;;
53299;SDS011;39187;48.476;8.310;2023-05-07T03:58:13;5.23;;;4.93;;
53299;SDS011;39187;48.476;8.310;2023-05-07T04:00:38;4.57;;;4.37;;
53299;SDS011;39187;48.476;8.310;2023-05-07T04:03:05;5.30;;;5.10;;
53299;SDS011;39187;48.476;8.310;2023-05-07T04:05:31;5.43;;;5.23;;
53299;SDS011;39187;48.476;8.310;2023-05-07T04:07:59;5.40;;;5.20;;
53299;SDS011;39187;48.476;8.310;2023-05-07T04:10:25;5.27;;;4.80;;
53299;SDS011;39187;48.476;8.310;2023-05-07T04:12:51;6.07;;;5.67;;
53299;SDS011;39187;48.476;8.310;2023-05-07T04:15:16;4.83;;;4.57;;
53299;SDS011;39187;48.476;8.310;2023-05-07T04:17:42;4.20;;;4.10;;
53299;SDS011;39187;48.476;8.310;2023-05-07T04:20:13;5.30;;;4.80;;
53299;SDS011;39187;48.476;8.310;2023-05-07T04:22:41;3.53;;;3.43;;
53299;SDS011;39187;48.476;8.310;2023-05-07T04:25:07;4.70;;;3.97;;
53299;SDS011;39187;48.476;8.310;2023-05-07T04:27:34;3.70;;;3.40;;
53299;SDS011;39187;48.476;8.310;2023-05-07T04:30:00;4.40;;;4.20;;
53299;SDS011;39187;48.476;8.310;2023-05-07T04:32:26;5.13;;;4.93;;
53299;SDS011;39187;48.476;8.310;2023-05-07T04:34:54;6.00;;;5.80;;
53299;SDS011;39187;48.476;8.310;2023-05-07T04:37:20;4.70;;;4.40;;
53299;SDS011;39187;48.476;8.310;2023-05-07T04:39:46;4.90;;;4.50;;
53299;SDS011;39187;48.476;8.310;2023-05-07T04:42:15;6.00;;;4.73;;
53299;SDS011;39187;48.476;8.310;2023-05-07T04:44:41;5.00;;;4.73;;
53299;SDS011;39187;48.476;8.310;2023-05-07T04:47:06;4.10;;;3.90;;
53299;SDS011;39187;48.476;8.310;2023-05-07T04:49:32;4.60;;;4.40;;
53299;SDS011;39187;48.476;8.310;2023-05-07T04:51:57;4.83;;;4.43;;
53299;SDS011;39187;48.476;8.310;2023-05-07T04:54:23;10.73;;;9.30;;
53299;SDS011;39187;48.476;8.310;2023-05-07T04:56:48;33.77;;;16.87;;
53299;SDS011;39187;48.476;8.310;2023-05-07T04:59:14;26.73;;;15.93;;
53299;SDS011;39187;48.476;8.310;2023-05-07T05:01:39;7.20;;;6.50;;
53299;SDS011;39187;48.476;8.310;2023-05-07T05:04:05;5.10;;;4.70;;
53299;SDS011;39187;48.476;8.310;2023-05-07T05:06:30;4.77;;;4.00;;
53299;SDS011;39187;48.476;8.310;2023-05-07T05:08:56;4.53;;;4.23;;
53299;SDS011;39187;48.476;8.310;2023-05-07T05:11:21;5.20;;;4.90;;
53299;SDS011;39187;48.476;8.310;2023-05-07T05:13:47;23.27;;;14.60;;
53299;SDS011;39187;48.476;8.310;2023-05-07T05:16:14;5.70;;;5.40;;
53299;SDS011;39187;48.476;8.310;2023-05-07T05:18:40;6.13;;;5.73;;
53299;SDS011;39187;48.476;8.310;2023-05-07T05:21:06;6.67;;;4.73;;
53299;SDS011;39187;48.476;8.310;2023-05-07T05:23:31;5.30;;;4.90;;
53299;SDS011;39187;48.476;8.310;2023-05-07T05:25:57;5.17;;;4.60;;
53299;SDS011;39187;48.476;8.310;2023-05-07T05:28:23;4.70;;;4.50;;
53299;SDS011;39187;48.476;8.310;2023-05-07T05:30:49;5.53;;;4.70;;
53299;SDS011;39187;48.476;8.310;2023-05-07T05:33:15;4.30;;;4.10;;
53299;SDS011;39187;48.476;8.310;2023-05-07T05:35:40;4.80;;;4.50;;
53299;SDS011;39187;48.476;8.310;2023-05-07T05:38:07;4.10;;;3.90;;
53299;SDS011;39187;48.476;8.310;2023-05-07T05:40:32;4.47;;;4.23;;
53299;SDS011;39187;48.476;8.310;2023-05-07T05:42:58;4.07;;;3.87;;
53299;SDS011;39187;48.476;8.310;2023-05-07T05:45:24;4.63;;;4.43;;
53299;SDS011;39187;48.476;8.310;2023-05-07T05:47:49;4.70;;;3.83;;
53299;SDS011;39187;48.476;8.310;2023-05-07T05:50:15;5.53;;;3.70;;
53299;SDS011;39187;48.476;8.310;2023-05-07T05:52:41;3.10;;;3.00;;
53299;SDS011;39187;48.476;8.310;2023-05-07T05:55:07;5.47;;;3.03;;
53299;SDS011;39187;48.476;8.310;2023-05-07T05:57:33;3.73;;;3.63;;
53299;SDS011;39187;48.476;8.310;2023-05-07T06:00:00;2.90;;;2.80;;
53299;SDS011;39187;48.476;8.310;2023-05-07T06:02:26;3.00;;;2.83;;
53299;SDS011;39187;48.476;8.310;2023-05-07T06:04:51;3.90;;;3.63;;
53299;SDS011;39187;48.476;8.310;2023-05-07T06:07:17;4.03;;;3.80;;
53299;SDS011;39187;48.476;8.310;2023-05-07T06:09:42;6.23;;;3.10;;
53299;SDS011;39187;48.476;8.310;2023-05-07T06:12:08;4.27;;;4.07;;
53299;SDS011;39187;48.476;8.310;2023-05-07T06:14:33;4.27;;;4.07;;
53299;SDS011;39187;48.476;8.310;2023-05-07T06:16:59;4.10;;;3.90;;
53299;SDS011;39187;48.476;8.310;2023-05-07T06:19:24;4.23;;;3.93;;
53299;SDS011;39187;48.476;8.310;2023-05-07T06:21:51;4.23;;;4.13;;
53299;SDS011;39187;48.476;8.310;2023-05-07T06:24:17;3.80;;;3.50;;
53299;SDS011;39187;48.476;8.310;2023-05-07T06:26:42;4.30;;;4.00;;
53299;SDS011;39187;48.476;8.310;2023-05-07T06:29:08;4.10;;;3.80;;
53299;SDS011;39187;48.476;8.310;2023-05-07T06:31:33;4.00;;;3.80;;
53299;SDS011;39187;48.476;8.310;2023-05-07T06:33:59;4.97;;;4.70;;
53299;SDS011;39187;48.476;8.310;2023-05-07T06:36:25;4.87;;;4.47;;
53299;SDS011;39187;48.476;8.310;2023-05-07T06:38:51;4.57;;;4.37;;
53299;SDS011;39187;48.476;8.310;2023-05-07T06:41:16;4.47;;;4.17;;
53299;SDS011;39187;48.476;8.310;2023-05-07T06:43:42;4.50;;;4.13;;
53299;SDS011;39187;48.476;8.310;2023-05-07T06:46:07;4.63;;;4.30;;
53299;SDS011;39187;48.476;8.310;2023-05-07T06:48:33;3.80;;;3.60;;
53299;SDS011;39187;48.476;8.310;2023-05-07T06:50:58;3.83;;;3.63;;
53299;SDS011;39187;48.476;8.310;2023-05-07T06:53:24;4.33;;;4.03;;
53299;SDS011;39187;48.476;8.310;2023-05-07T06:55:50;3.67;;;3.47;;
53299;SDS011;39187;48.476;8.310;2023-05-07T06:58:17;4.33;;;3.87;;
53299;SDS011;39187;48.476;8.310;2023-05-07T07:00:42;3.67;;;3.47;;
53299;SDS011;39187;48.476;8.310;2023-05-07T07:03:08;3.17;;;3.07;;
53299;SDS011;39187;48.476;8.310;2023-05-07T07:05:33;11.53;;;3.63;;
53299;SDS011;39187;48.476;8.310;2023-05-07T07:07:59;3.23;;;2.93;;
53299;SDS011;39187;48.476;8.310;2023-05-07T07:10:24;3.70;;;3.33;;
53299;SDS011;39187;48.476;8.310;2023-05-07T07:12:50;3.37;;;3.17;;
53299;SDS011;39187;48.476;8.310;2023-05-07T07:15:17;5.43;;;4.13;;
53299;SDS011;39187;48.476;8.310;2023-05-07T07:17:43;5.70;;;3.67;;
53299;SDS011;39187;48.476;8.310;2023-05-07T07:20:08;3.50;;;3.20;;
53299;SDS011;39187;48.476;8.310;2023-05-07T07:22:34;4.43;;;3.77;;
53299;SDS011;39187;48.476;8.310;2023-05-07T07:25:00;4.03;;;3.73;;
53299;SDS011;39187;48.476;8.310;2023-05-07T07:27:25;5.00;;;3.17;;
53299;SDS011;39187;48.476;8.310;2023-05-07T07:29:51;3.70;;;3.40;;
53299;SDS011;39187;48.476;8.310;2023-05-07T07:32:16;3.63;;;3.33;;
53299;SDS011;39187;48.476;8.310;2023-05-07T07:34:42;3.77;;;3.53;;
53299;SDS011;39187;48.476;8.310;2023-05-07T07:37:07;7.37;;;3.93;;
53299;SDS011;39187;48.476;8.310;2023-05-07T07:39:33;3.47;;;3.17;;
53299;SDS011;39187;48.476;8.310;2023-05-07T07:41:58;3.57;;;3.37;;
53299;SDS011;39187;48.476;8.310;2023-05-07T07:44:24;5.10;;;2.90;;
53299;SDS011;39187;48.476;8.310;2023-05-07T07:46:50;5.20;;;3.60;;
53299;SDS011;39187;48.476;8.310;2023-05-07T07:49:15;3.90;;;2.73;;
53299;SDS011;39187;48.476;8.310;2023-05-07T07:51:41;2.73;;;2.53;;
53299;SDS011;39187;48.476;8.310;2023-05-07T07:54:07;2.80;;;2.70;;
53299;SDS011;39187;48.476;8.310;2023-05-07T07:56:32;3.97;;;2.43;;
53299;SDS011;39187;48.476;8.310;2023-05-07T07:58:59;3.00;;;2.70;;
53299;SDS011;39187;48.476;8.310;2023-05-07T08:01:24;5.20;;;3.23;;
53299;SDS011;39187;48.476;8.310;2023-05-07T08:03:51;3.00;;;2.90;;
53299;SDS011;39187;48.476;8.310;2023-05-07T08:06:16;4.00;;;2.67;;
53299;SDS011;39187;48.476;8.310;2023-05-07T08:08:42;3.10;;;3.00;;
53299;SDS011;39187;48.476;8.310;2023-05-07T08:11:07;2.40;;;2.30;;
53299;SDS011;39187;48.476;8.310;2023-05-07T08:13:33;3.57;;;3.27;;
53299;SDS011;39187;48.476;8.310;2023-05-07T08:15:58;4.33;;;3.77;;
53299;SDS011;39187;48.476;8.310;2023-05-07T08:18:24;2.63;;;2.53;;
53299;SDS011;39187;48.476;8.310;2023-05-07T08:20:50;3.63;;;2.60;;
53299;SDS011;39187;48.476;8.310;2023-05-07T08:23:16;2.63;;;2.50;;
53299;SDS011;39187;48.476;8.310;2023-05-07T08:25:42;2.17;;;2.07;;
53299;SDS011;39187;48.476;8.310;2023-05-07T08:28:10;2.60;;;1.80;;
53299;SDS011;39187;48.476;8.310;2023-05-07T08:30:35;2.57;;;2.00;;
53299;SDS011;39187;48.476;8.310;2023-05-07T08:33:01;2.00;;;1.90;;
53299;SDS011;39187;48.476;8.310;2023-05-07T08:35:26;1.70;;;1.60;;
53299;SDS011;39187;48.476;8.310;2023-05-07T08:37:53;1.70;;;1.60;;
53299;SDS011;39187;48.476;8.310;2023-05-07T08:40:18;2.80;;;2.60;;
53299;SDS011;39187;48.476;8.310;2023-05-07T08:42:44;2.40;;;2.10;;
53299;SDS011;39187;48.476;8.310;2023-05-07T08:45:14;5.63;;;2.60;;
53299;SDS011;39187;48.476;8.310;2023-05-07T08:47:44;2.53;;;2.33;;
53299;SDS011;39187;48.476;8.310;2023-05-07T08:50:11;2.50;;;2.40;;
53299;SDS011;39187;48.476;8.310;2023-05-07T08:52:37;2.60;;;2.03;;
53299;SDS011;39187;48.476;8.310;2023-05-07T08:55:05;1.93;;;1.73;;
53299;SDS011;39187;48.476;8.310;2023-05-07T08:57:32;2.30;;;2.20;;
53299;SDS011;39187;48.476;8.310;2023-05-07T08:59:57;2.17;;;1.47;;
53299;SDS011;39187;48.476;8.310;2023-05-07T09:02:23;5.20;;;1.70;;
53299;SDS011;39187;48.476;8.310;2023-05-07T09:04:49;2.00;;;1.80;;
53299;SDS011;39187;48.476;8.310;2023-05-07T09:07:15;4.83;;;2.33;;
53299;SDS011;39187;48.476;8.310;2023-05-07T09:09:41;2.13;;;2.03;;
53299;SDS011;39187;48.476;8.310;2023-05-07T09:12:09;2.27;;;2.17;;
53299;SDS011;39187;48.476;8.310;2023-05-07T09:14:35;2.50;;;2.40;;
53299;SDS011;39187;48.476;8.310;2023-05-07T09:17:00;2.30;;;2.20;;
53299;SDS011;39187;48.476;8.310;2023-05-07T09:19:26;2.40;;;2.30;;
53299;SDS011;39187;48.476;8.310;2023-05-07T09:21:58;2.20;;;2.10;;
53299;SDS011;39187;48.476;8.310;2023-05-07T09:24:25;2.90;;;2.40;;
53299;SDS011;39187;48.476;8.310;2023-05-07T09:26:51;2.10;;;2.00;;
53299;SDS011;39187;48.476;8.310;2023-05-07T09:29:18;2.70;;;2.60;;
53299;SDS011;39187;48.476;8.310;2023-05-07T09:31:43;2.57;;;2.47;;
53299;SDS011;39187;48.476;8.310;2023-05-07T09:34:09;2.60;;;2.50;;
53299;SDS011;39187;48.476;8.310;2023-05-07T09:36:34;2.70;;;2.50;;
53299;SDS011;39187;48.476;8.310;2023-05-07T09:39:00;2.80;;;2.60;;
53299;SDS011;39187;48.476;8.310;2023-05-07T09:41:26;3.27;;;2.50;;
53299;SDS011;39187;48.476;8.310;2023-05-07T09:43:55;2.20;;;2.10;;
53299;SDS011;39187;48.476;8.310;2023-05-07T09:46:25;5.00;;;2.03;;
53299;SDS011;39187;48.476;8.310;2023-05-07T09:48:56;2.70;;;2.60;;
53299;SDS011;39187;48.476;8.310;2023-05-07T09:51:29;3.73;;;3.43;;
53299;SDS011;39187;48.476;8.310;2023-05-07T09:53:59;3.50;;;3.23;;
53299;SDS011;39187;48.476;8.310;2023-05-07T09:56:27;5.00;;;4.70;;
53299;SDS011;39187;48.476;8.310;2023-05-07T09:58:56;2.20;;;2.10;;
53299;SDS011;39187;48.476;8.310;2023-05-07T10:01:25;6.20;;;2.40;;
53299;SDS011;39187;48.476;8.310;2023-05-07T10:03:52;8.20;;;3.30;;
53299;SDS011;39187;48.476;8.310;2023-05-07T10:06:19;2.97;;;2.77;;
53299;SDS011;39187;48.476;8.310;2023-05-07T10:08:45;2.90;;;2.60;;
53299;SDS011;39187;48.476;8.310;2023-05-07T10:11:11;3.20;;;2.97;;
53299;SDS011;39187;48.476;8.310;2023-05-07T10:13:37;3.10;;;2.90;;
53299;SDS011;39187;48.476;8.310;2023-05-07T10:16:03;2.50;;;2.30;;
53299;SDS011;39187;48.476;8.310;2023-05-07T10:18:30;2.17;;;2.07;;
53299;SDS011;39187;48.476;8.310;2023-05-07T10:21:00;2.60;;;1.90;;
53299;SDS011;39187;48.476;8.310;2023-05-07T10:23:32;2.20;;;2.10;;
53299;SDS011;39187;48.476;8.310;2023-05-07T10:25:58;2.37;;;2.27;;
53299;SDS011;39187;48.476;8.310;2023-05-07T10:28:27;2.30;;;2.20;;
53299;SDS011;39187;48.476;8.310;2023-05-07T10:31:08;5.80;;;2.80;;
53299;SDS011;39187;48.476;8.310;2023-05-07T10:33:56;5.00;;;2.00;;
53299;SDS011;39187;48.476;8.310;2023-05-07T10:36:24;3.50;;;1.93;;
53299;SDS011;39187;48.476;8.310;2023-05-07T10:38:51;2.30;;;2.20;;
53299;SDS011;39187;48.476;8.310;2023-05-07T10:41:17;2.50;;;2.40;;
53299;SDS011;39187;48.476;8.310;2023-05-07T10:43:44;2.33;;;2.13;;
53299;SDS011;39187;48.476;8.310;2023-05-07T10:46:17;2.00;;;1.90;;
53299;SDS011;39187;48.476;8.310;2023-05-07T10:51:33;2.20;;;2.10;;
53299;SDS011;39187;48.476;8.310;2023-05-07T10:56:34;2.67;;;2.43;;
53299;SDS011;39187;48.476;8.310;2023-05-07T11:01:56;3.00;;;2.47;;
53299;SDS011;39187;48.476;8.310;2023-05-07T11:04:23;2.90;;;2.70;;
53299;SDS011;39187;48.476;8.310;2023-05-07T11:07:37;6.00;;;5.40;;
53299;SDS011;39187;48.476;8.310;2023-05-07T11:09:54;3.57;;;2.93;;
53299;SDS011;39187;48.476;8.310;2023-05-07T11:17:32;3.03;;;2.80;;
53299;SDS011;39187;48.476;8.310;2023-05-07T11:19:59;4.70;;;2.70;;
53299;SDS011;39187;48.476;8.310;2023-05-07T11:25:04;2.97;;;2.77;;
53299;SDS011;39187;48.476;8.310;2023-05-07T11:27:31;3.83;;;2.83;;
53299;SDS011;39187;48.476;8.310;2023-05-07T11:29:57;2.40;;;2.30;;
53299;SDS011;39187;48.476;8.310;2023-05-07T11:32:23;2.93;;;2.83;;
53299;SDS011;39187;48.476;8.310;2023-05-07T11:34:53;2.70;;;2.50;;
53299;SDS011;39187;48.476;8.310;2023-05-07T11:37:20;6.33;;;2.40;;
53299;SDS011;39187;48.476;8.310;2023-05-07T11:39:47;3.23;;;2.80;;
53299;SDS011;39187;48.476;8.310;2023-05-07T11:45:10;2.47;;;2.37;;
53299;SDS011;39187;48.476;8.310;2023-05-07T11:47:36;4.13;;;2.73;;
53299;SDS011;39187;48.476;8.310;2023-05-07T11:50:05;3.07;;;2.93;;
53299;SDS011;39187;48.476;8.310;2023-05-07T11:52:32;3.17;;;3.07;;
53299;SDS011;39187;48.476;8.310;2023-05-07T11:54:59;3.10;;;2.90;;
53299;SDS011;39187;48.476;8.310;2023-05-07T11:57:26;3.10;;;3.00;;
53299;SDS011;39187;48.476;8.310;2023-05-07T12:00:01;2.80;;;2.60;;
53299;SDS011;39187;48.476;8.310;2023-05-07T12:02:29;3.00;;;2.90;;
53299;SDS011;39187;48.476;8.310;2023-05-07T12:04:56;2.87;;;2.77;;
53299;SDS011;39187;48.476;8.310;2023-05-07T12:07:23;3.07;;;2.97;;
53299;SDS011;39187;48.476;8.310;2023-05-07T12:09:48;3.10;;;3.00;;
53299;SDS011;39187;48.476;8.310;2023-05-07T12:12:15;5.20;;;3.30;;
53299;SDS011;39187;48.476;8.310;2023-05-07T12:14:42;3.00;;;2.80;;
53299;SDS011;39187;48.476;8.310;2023-05-07T12:17:10;7.83;;;4.30;;
53299;SDS011;39187;48.476;8.310;2023-05-07T12:19:38;3.40;;;3.20;;
53299;SDS011;39187;48.476;8.310;2023-05-07T12:22:05;3.23;;;3.10;;
53299;SDS011;39187;48.476;8.310;2023-05-07T12:24:45;5.43;;;2.73;;
53299;SDS011;39187;48.476;8.310;2023-05-07T12:27:11;2.40;;;2.30;;
53299;SDS011;39187;48.476;8.310;2023-05-07T12:29:37;3.03;;;2.87;;
53299;SDS011;39187;48.476;8.310;2023-05-07T12:32:12;3.03;;;2.93;;
53299;SDS011;39187;48.476;8.310;2023-05-07T12:34:40;3.33;;;2.70;;
53299;SDS011;39187;48.476;8.310;2023-05-07T12:37:05;2.73;;;2.63;;
53299;SDS011;39187;48.476;8.310;2023-05-07T12:39:31;3.10;;;3.00;;
53299;SDS011;39187;48.476;8.310;2023-05-07T12:41:58;4.53;;;4.23;;
53299;SDS011;39187;48.476;8.310;2023-05-07T12:44:25;6.97;;;5.10;;
53299;SDS011;39187;48.476;8.310;2023-05-07T12:46:55;14.13;;;5.77;;
53299;SDS011;39187;48.476;8.310;2023-05-07T12:49:20;5.40;;;5.00;;
53299;SDS011;39187;48.476;8.310;2023-05-07T12:51:46;4.67;;;4.27;;
53299;SDS011;39187;48.476;8.310;2023-05-07T12:54:13;4.20;;;3.90;;
53299;SDS011;39187;48.476;8.310;2023-05-07T12:56:39;5.30;;;4.53;;
53299;SDS011;39187;48.476;8.310;2023-05-07T12:59:05;7.30;;;6.67;;
53299;SDS011;39187;48.476;8.310;2023-05-07T13:01:31;6.50;;;6.00;;
53299;SDS011;39187;48.476;8.310;2023-05-07T13:04:02;4.73;;;4.13;;
53299;SDS011;39187;48.476;8.310;2023-05-07T13:06:29;6.00;;;4.47;;
53299;SDS011;39187;48.476;8.310;2023-05-07T13:08:56;4.37;;;4.13;;
53299;SDS011;39187;48.476;8.310;2023-05-07T13:11:21;4.10;;;3.70;;
53299;SDS011;39187;48.476;8.310;2023-05-07T13:13:48;5.83;;;3.97;;
53299;SDS011;39187;48.476;8.310;2023-05-07T13:16:13;4.13;;;3.73;;
53299;SDS011;39187;48.476;8.310;2023-05-07T13:18:39;3.60;;;3.30;;
53299;SDS011;39187;48.476;8.310;2023-05-07T13:21:05;3.47;;;3.17;;
53299;SDS011;39187;48.476;8.310;2023-05-07T13:23:31;3.23;;;2.50;;
53299;SDS011;39187;48.476;8.310;2023-05-07T13:25:57;3.17;;;3.00;;
53299;SDS011;39187;48.476;8.310;2023-05-07T13:28:22;4.30;;;3.30;;
53299;SDS011;39187;48.476;8.310;2023-05-07T13:30:49;3.33;;;3.13;;
53299;SDS011;39187;48.476;8.310;2023-05-07T13:33:16;3.43;;;3.33;;
53299;SDS011;39187;48.476;8.310;2023-05-07T13:35:42;4.03;;;3.70;;
53299;SDS011;39187;48.476;8.310;2023-05-07T13:38:08;3.23;;;3.03;;
53299;SDS011;39187;48.476;8.310;2023-05-07T13:40:33;3.37;;;3.10;;
53299;SDS011;39187;48.476;8.310;2023-05-07T13:42:59;5.37;;;2.67;;
53299;SDS011;39187;48.476;8.310;2023-05-07T13:45:27;3.07;;;2.83;;
53299;SDS011;39187;48.476;8.310;2023-05-07T13:47:54;4.73;;;3.20;;
53299;SDS011;39187;48.476;8.310;2023-05-07T13:50:20;2.77;;;2.67;;
53299;SDS011;39187;48.476;8.310;2023-05-07T13:52:46;3.03;;;2.90;;
53299;SDS011;39187;48.476;8.310;2023-05-07T13:55:18;3.00;;;2.90;;
53299;SDS011;39187;48.476;8.310;2023-05-07T13:57:48;4.07;;;3.23;;
53299;SDS011;39187;48.476;8.310;2023-05-07T14:00:23;3.40;;;3.20;;
53299;SDS011;39187;48.476;8.310;2023-05-07T14:02:49;5.20;;;3.63;;
53299;SDS011;39187;48.476;8.310;2023-05-07T14:05:15;3.33;;;3.13;;
53299;SDS011;39187;48.476;8.310;2023-05-07T14:07:40;3.60;;;3.30;;
53299;SDS011;39187;48.476;8.310;2023-05-07T14:10:06;2.97;;;2.87;;
53299;SDS011;39187;48.476;8.310;2023-05-07T14:12:32;2.63;;;2.53;;
53299;SDS011;39187;48.476;8.310;2023-05-07T14:14:58;3.30;;;3.10;;
53299;SDS011;39187;48.476;8.310;2023-05-07T14:17:23;2.93;;;2.73;;
53299;SDS011;39187;48.476;8.310;2023-05-07T14:19:51;3.03;;;2.73;;
53299;SDS011;39187;48.476;8.310;2023-05-07T14:22:19;3.17;;;3.00;;
53299;SDS011;39187;48.476;8.310;2023-05-07T14:24:46;2.70;;;2.50;;
53299;SDS011;39187;48.476;8.310;2023-05-07T14:27:11;2.77;;;2.67;;
53299;SDS011;39187;48.476;8.310;2023-05-07T14:29:37;2.53;;;2.43;;
53299;SDS011;39187;48.476;8.310;2023-05-07T14:32:02;3.53;;;3.00;;
53299;SDS011;39187;48.476;8.310;2023-05-07T14:34:28;3.53;;;3.20;;
53299;SDS011;39187;48.476;8.310;2023-05-07T14:36:55;3.03;;;2.93;;
53299;SDS011;39187;48.476;8.310;2023-05-07T14:39:20;2.40;;;2.30;;
53299;SDS011;39187;48.476;8.310;2023-05-07T14:41:46;2.50;;;2.40;;
53299;SDS011;39187;48.476;8.310;2023-05-07T14:44:12;2.63;;;2.23;;
53299;SDS011;39187;48.476;8.310;2023-05-07T14:46:37;2.70;;;2.50;;
53299;SDS011;39187;48.476;8.310;2023-05-07T14:49:03;2.90;;;2.80;;
53299;SDS011;39187;48.476;8.310;2023-05-07T14:51:29;2.53;;;2.43;;
53299;SDS011;39187;48.476;8.310;2023-05-07T14:53:55;3.90;;;2.17;;
53299;SDS011;39187;48.476;8.310;2023-05-07T14:56:21;2.40;;;2.20;;
53299;SDS011;39187;48.476;8.310;2023-05-07T14:58:47;2.00;;;1.90;;
53299;SDS011;39187;48.476;8.310;2023-05-07T15:01:15;2.10;;;2.00;;
53299;SDS011;39187;48.476;8.310;2023-05-07T15:03:41;1.93;;;1.83;;